Terminal Aerodrome Forecast
Issued by NWS

Home | Current Version | Previous Version | Text Only | Print | Product List | Glossary On
Versions: 1 2 3 4 5 6 7 8 9 10 11 12 13 14 15 16 17 18 19 20 21 22 23 24 25 26
000
FTUS41 KALY 182300
TAFPSF
TAF
KPSF 182325Z 1900/1924 18007KT P6SM SCT150 BKN200
     FM190400 23005KT P6SM SCT025 BKN060 OVC100
      TEMPO 1906/1910 BKN025
     FM191100 31010KT P6SM SCT025 SCT060
     FM191500 32013G25KT P6SM SCT050=

USA.gov is the U.S. government's official web portal to all federal, state and local government web resources and services.